Latest Weather Observations for Swan Hill

IDN60801

Issued at 2:34 pm EDT Sunday 21 December 2014 (issued every 30 minutes, with the page automatically refreshed every 10 minutes)

About weather observations | Map of weather stations | Latest weather observations for NSW | Other Formats
Station Details ID: 077094 Name: SWAN HILL AERODROME Lat: -35.38 Lon: 143.54 Height: 71.0 m
Data from the previous 72 hours. | See also: Recent months at Swan Hill
Date/Time
EDT
Temp
°C
App
Temp
°C
Dew
Point
Rel
Hum
%
Delta-T
°C
Wind Press
QNH
hPa
Press
MSL
hPa
Rain
since 9 am
mm
Dir
 
Spd
km/h
Gust
km/h
Spd
kts
Gust
kts
21/02:30pm 35.5 29.7 -1.2 9 17.9 W 19 39 10 21 1011.9 - 0.0
21/02:00pm 34.2 30.3 3.2 14 16.1 N 13 20 7 11 1012.1 - 0.0
21/01:30pm 33.7 29.1 -0.7 11 16.7 NW 13 30 7 16 1012.6 - 0.0
21/01:00pm 32.8 29.3 3.4 15 15.2 WSW 11 22 6 12 1013.0 - 0.0
21/12:30pm 33.2 29.8 3.9 16 15.3 NNE 11 20 6 11 1013.4 - 0.0
21/12:00pm 31.6 29.1 5.0 18 14.0 NNW 7 32 4 17 1013.9 1013.6 0.0
21/11:30am 30.7 26.6 4.5 19 13.6 N 15 26 8 14 1013.9 - 0.0
21/11:00am 30.8 26.4 4.7 19 13.6 N 17 22 9 12 1014.1 - 0.0
21/10:30am 30.1 26.1 5.0 20 13.1 N 15 22 8 12 1014.2 - 0.0
21/10:00am 28.5 24.4 6.4 24 11.7 NNE 17 22 9 12 1014.3 - 0.0
21/09:30am 27.4 23.4 6.6 26 11.0 NE 17 22 9 12 1014.5 - 0.0
21/09:00am 25.7 22.2 7.1 30 9.8 NE 15 20 8 11 1014.7 1014.5 0.0
21/08:30am 23.3 19.9 7.7 36 8.2 NE 15 20 8 11 1014.5 - 0.0
21/08:00am 21.1 18.2 8.3 43 6.7 ENE 13 19 7 10 1014.4 - 0.0
21/07:30am 19.0 17.1 9.1 52 5.2 ESE 9 13 5 7 1014.3 - 0.0
21/07:00am 16.5 14.5 8.5 59 4.1 ESE 9 13 5 7 1013.9 - 0.0
21/06:30am 14.4 12.5 7.5 63 3.4 SE 7 9 4 5 1014.4 - 0.0
21/06:00am 14.1 12.2 7.4 64 3.3 SE 7 11 4 6 1013.9 1013.6 0.0
21/05:30am 14.8 13.2 7.8 63 3.5 SE 6 7 3 4 1013.5 - 0.0
21/05:00am 15.2 12.9 7.6 60 3.8 SE 9 11 5 6 1013.3 - 0.0
21/04:30am 16.1 14.4 8.2 59 4.0 SE 7 9 4 5 1013.2 - 0.0
21/04:00am 17.0 14.3 7.5 53 4.8 SE 11 13 6 7 1013.0 - 0.0
21/03:30am 18.1 15.9 7.9 51 5.2 ESE 9 13 5 7 1013.0 - 0.0
21/03:00am 18.2 15.7 8.3 52 5.1 ESE 11 13 6 7 1013.2 1012.9 0.0
21/02:30am 17.5 13.8 4.2 41 6.3 SSE 13 19 7 10 1013.4 - 0.0
21/02:00am 17.1 15.5 2.3 37 6.7 CALM 0 0 0 0 1013.5 - 0.0
21/01:30am 17.4 15.9 2.8 37 6.7 CALM 0 0 0 0 1013.7 - 0.0
21/01:00am 17.7 16.3 3.6 39 6.6 CALM 0 0 0 0 1013.8 - 0.0
21/12:30am 18.0 17.0 5.5 43 6.1 CALM 0 0 0 0 1014.1 - 0.0
21/12:00am 18.9 17.7 4.6 39 6.9 CALM 0 0 0 0 1014.3 1014.0 0.0
 
Date/Time
EDT
Temp
°C
App
Temp
°C
Dew
Point
Rel
Hum
%
Delta-T
°C
Wind Press
QNH
hPa
Press
MSL
hPa
Rain
since 9 am
mm
Dir
 
Spd
km/h
Gust
km/h
Spd
kts
Gust
kts
20/11:30pm 19.7 18.7 5.8 40 6.9 CALM 0 0 0 0 1014.4 - 0.0
20/11:00pm 20.8 19.6 4.6 34 7.9 CALM 0 0 0 0 1014.6 - 0.0
20/10:30pm 21.2 19.6 8.0 42 6.9 S 6 7 3 4 1014.5 - 0.0
20/10:00pm 22.4 20.2 6.3 35 8.2 S 7 11 4 6 1014.4 - 0.0
20/09:30pm 24.1 22.2 6.5 32 9.1 S 6 7 3 4 1014.2 - 0.0
20/09:00pm 25.8 23.6 6.4 29 10.1 S 7 9 4 5 1014.1 1013.8 0.0
20/08:30pm 28.1 25.7 5.4 23 11.8 S 7 9 4 5 1013.9 - 0.0
20/08:00pm 29.1 26.2 4.4 20 12.7 SSE 9 17 5 9 1013.7 - 0.0
20/07:30pm 29.9 26.6 4.6 20 13.1 S 11 17 6 9 1013.6 - 0.0
20/07:00pm 29.7 25.9 3.9 19 13.2 S 13 24 7 13 1013.3 - 0.0
20/06:30pm 29.8 26.5 4.8 20 13.0 S 11 20 6 11 1013.3 - 0.0
20/06:00pm 29.7 26.0 4.6 20 13.0 SSW 13 24 7 13 1013.4 1013.1 0.0
20/05:30pm 29.6 26.7 4.7 20 12.9 S 9 17 5 9 1013.5 - 0.0
20/05:00pm 29.5 25.2 3.4 19 13.2 S 15 22 8 12 1014.0 - 0.0
20/04:30pm 29.5 25.4 4.1 20 13.0 WSW 15 24 8 13 1014.3 - 0.0
20/04:00pm 29.0 25.7 4.8 21 12.5 SSE 11 22 6 12 1014.9 - 0.0
20/03:30pm 28.0 23.9 4.5 22 12.0 SSW 15 28 8 15 1015.4 - 0.0
20/03:00pm 28.1 25.3 5.3 23 11.8 S 9 28 5 15 1015.7 1015.5 0.0
20/02:30pm 28.0 24.4 4.8 22 11.9 S 13 24 7 13 1016.1 - 0.0
20/02:00pm 26.3 22.6 4.5 24 11.0 WSW 13 19 7 10 1016.4 - 0.0
20/01:30pm 26.4 22.7 4.4 24 11.1 SSW 13 22 7 12 1016.9 - 0.0
20/01:00pm 25.5 21.0 4.3 25 10.6 SW 17 24 9 13 1017.5 - 0.0
20/12:30pm 24.3 20.5 4.1 27 10.0 SW 13 24 7 13 1018.1 - 0.0
20/12:00pm 24.1 19.2 4.0 27 9.9 SW 19 20 10 11 1018.5 1018.3 0.0
20/11:30am 23.3 20.9 5.1 30 9.1 W 7 13 4 7 1018.6 - 0.0
20/11:00am 22.1 19.4 5.5 34 8.3 SSW 9 19 5 10 1019.1 - 0.0
20/10:30am 20.9 18.2 5.6 36 7.6 E 9 17 5 9 1019.2 - 0.0
20/10:00am 19.6 17.0 5.9 40 6.8 SSE 9 17 5 9 1019.5 - 0.0
20/09:30am 19.0 16.8 6.1 43 6.4 E 7 13 4 7 1019.7 - 0.0
20/09:00am 18.4 15.8 6.3 45 6.0 ESE 9 13 5 7 1019.7 1019.4 0.0
20/08:30am 16.9 14.0 6.5 50 5.1 E 11 17 6 9 1019.4 - 0.0
20/08:00am 15.7 12.8 6.7 55 4.4 ESE 11 17 6 9 1019.1 - 0.0
20/07:30am 14.8 11.9 6.3 56 4.1 SE 11 15 6 8 1018.6 - 0.0
20/07:00am 13.1 11.1 6.2 63 3.3 SE 6 7 3 4 1018.3 - 0.0
20/06:30am 12.0 9.3 5.8 66 2.9 SE 9 13 5 7 1017.9 - 0.0
20/06:00am 11.6 8.9 5.6 66 2.8 SE 9 11 5 6 1017.7 1017.5 0.0
20/05:30am 12.3 9.7 5.9 65 3.0 SE 9 13 5 7 1017.6 - 0.0
20/05:00am 13.2 10.2 6.0 61 3.4 SSE 11 15 6 8 1017.5 - 0.0
20/04:30am 13.7 10.7 5.9 59 3.7 SE 11 15 6 8 1017.4 - 0.0
20/04:00am 14.3 11.4 6.4 59 3.8 SSE 11 17 6 9 1017.3 - 0.0
20/03:30am 15.2 11.5 6.3 55 4.3 SE 15 20 8 11 1017.3 - 0.0
20/03:00am 15.3 11.5 6.0 54 4.5 SE 15 22 8 12 1017.3 1017.1 0.0
20/02:30am 15.6 11.7 3.6 44 5.5 SE 13 19 7 10 1017.4 - 0.0
20/02:00am 15.5 11.8 2.6 42 5.8 SE 11 17 6 9 1017.5 - 0.0
20/01:30am 16.2 12.1 2.4 39 6.2 SSE 13 19 7 10 1017.6 - 0.0
20/01:00am 17.1 13.4 2.3 37 6.7 SE 11 17 6 9 1017.6 - 0.0
20/12:30am 17.1 13.3 1.6 35 6.9 SE 11 15 6 8 1017.6 - 0.0
20/12:00am 17.1 13.7 1.6 35 6.9 SSE 9 13 5 7 1017.7 1017.5 0.0
 
Date/Time
EDT
Temp
°C
App
Temp
°C
Dew
Point
Rel
Hum
%
Delta-T
°C
Wind Press
QNH
hPa
Press
MSL
hPa
Rain
since 9 am
mm
Dir
 
Spd
km/h
Gust
km/h
Spd
kts
Gust
kts
19/11:30pm 18.2 14.4 1.8 33 7.4 S 11 15 6 8 1017.7 - 0.0
19/11:00pm 18.7 15.3 1.7 32 7.7 S 9 15 5 8 1017.7 - 0.0
19/10:30pm 19.1 15.2 1.4 30 8.0 S 11 13 6 7 1017.6 - 0.0
19/10:00pm 19.6 15.7 1.2 29 8.3 SSW 11 13 6 7 1017.4 - 0.0
19/09:30pm 20.5 16.7 1.5 28 8.7 S 11 15 6 8 1017.2 - 0.0
19/09:00pm 21.6 17.7 1.4 26 9.3 S 11 15 6 8 1017.0 1016.7 0.0
19/08:30pm 23.3 18.2 0.8 22 10.4 SSW 17 24 9 13 1017.0 - 0.0
19/08:00pm 24.3 19.1 0.2 20 11.1 S 17 28 9 15 1016.8 - 0.0
19/07:30pm 24.7 19.1 0.2 20 11.3 S 19 32 10 17 1016.4 - 0.0
19/07:00pm 25.1 18.9 -0.1 19 11.6 SW 22 37 12 20 1016.2 - 0.0
19/06:30pm 25.4 18.8 -0.6 18 11.9 SW 24 37 13 20 1016.0 - 0.0
19/06:00pm 25.1 19.2 -0.9 18 11.8 SSW 20 35 11 19 1015.9 1015.7 0.0
19/05:30pm 25.9 19.6 -0.7 17 12.2 SSW 22 33 12 18 1015.8 - 0.0
19/05:00pm 25.6 19.2 -1.4 17 12.2 SSW 22 33 12 18 1015.9 - 0.0
19/04:30pm 24.6 17.3 -2.6 16 11.9 SW 26 35 14 19 1016.0 - 0.0
19/04:00pm 24.7 18.8 -2.3 16 11.9 S 19 35 10 19 1016.2 - 0.0
19/03:30pm 23.9 17.3 -3.4 16 11.7 SW 22 32 12 17 1016.5 - 0.0
19/03:00pm 23.9 17.3 -2.9 16 11.6 WSW 22 39 12 21 1016.7 1016.5 0.0
19/02:30pm 22.9 16.0 -2.6 18 11.0 SW 24 37 13 20 1017.0 - 0.0
19/02:00pm 22.9 16.4 -2.2 18 10.9 SSW 22 41 12 22 1017.1 - 0.0
19/01:30pm 22.4 16.4 -1.2 20 10.4 SSW 20 33 11 18 1017.4 - 0.0
19/01:00pm 21.8 14.4 -0.8 22 10.0 SW 28 41 15 22 1017.6 - 0.0
19/12:30pm 20.5 14.0 0.0 25 9.1 SW 24 41 13 22 1017.8 - 0.0
19/12:00pm 20.7 14.7 -1.5 22 9.6 SSW 20 35 11 19 1017.8 1017.6 0.0
19/11:30am 19.2 13.5 -1.0 25 8.7 SW 19 32 10 17 1017.8 - 0.0
19/11:00am 19.1 13.4 0.3 28 8.3 SSW 20 30 11 16 1017.9 - 0.0
19/10:30am 18.8 13.4 1.2 30 7.9 S 19 32 10 17 1018.1 - 0.0
19/10:00am 17.4 12.1 2.1 36 6.9 S 19 30 10 16 1018.2 - 0.0
19/09:30am 17.2 12.5 3.1 39 6.5 SSE 17 30 9 16 1018.3 - 0.0
19/09:00am 15.8 11.2 3.9 45 5.5 S 17 28 9 15 1018.2 1018.0 0.0
19/08:30am 15.1 11.1 4.9 50 4.8 S 15 22 8 12 1018.0 - 0.0
19/08:00am 14.0 9.6 4.7 53 4.3 SSW 17 22 9 12 1017.9 - 0.0
19/07:30am 12.2 8.1 4.2 58 3.6 SSW 15 19 8 10 1017.4 - 0.0
19/07:00am 10.8 7.4 3.8 62 3.1 SW 11 13 6 7 1016.9 - 0.0
19/06:30am 9.7 6.6 3.8 66 2.6 SW 9 11 5 6 1016.6 - 0.0
19/06:00am 9.9 6.8 3.8 66 2.7 SSW 9 11 5 6 1016.3 1016.1 0.0
19/05:30am 10.2 7.2 3.9 65 2.8 SW 9 13 5 7 1016.0 - 0.0
19/05:00am 10.5 7.0 3.7 63 3.0 SSW 11 15 6 8 1015.5 - 0.0
19/04:30am 10.8 7.4 4.1 63 3.0 SSW 11 13 6 7 1015.0 - 0.0
19/04:00am 10.7 7.9 3.4 60 3.2 SSW 7 11 4 6 1014.9 - 0.0
19/03:30am 11.7 8.5 3.1 55 3.8 SSW 9 13 5 7 1014.8 - 0.0
19/03:00am 11.2 8.1 1.5 51 4.1 SSW 7 11 4 6 1014.6 1014.4 0.0
19/02:30am 11.6 8.8 2.1 52 4.1 SSW 6 6 3 3 1014.4 - 0.0
19/02:00am 12.9 9.9 1.8 47 4.8 SSW 7 9 4 5 1014.3 - 0.0
19/01:30am 13.9 10.0 1.4 42 5.4 SSW 11 15 6 8 1014.1 - 0.0
19/01:00am 14.9 10.2 1.0 39 6.0 SW 15 20 8 11 1014.1 - 0.0
19/12:30am 15.6 10.5 0.9 37 6.4 SW 17 20 9 11 1014.1 - 0.0
19/12:00am 16.2 11.0 0.1 33 6.9 WSW 17 20 9 11 1014.1 1013.7 0.0
 
Date/Time
EDT
Temp
°C
App
Temp
°C
Dew
Point
Rel
Hum
%
Delta-T
°C
Wind Press
QNH
hPa
Press
MSL
hPa
Rain
since 9 am
mm
Dir
 
Spd
km/h
Gust
km/h
Spd
kts
Gust
kts
18/11:30pm 17.1 11.9 0.3 32 7.3 SW 17 22 9 12 1013.7 - 0.0
18/11:00pm 17.9 12.8 0.7 31 7.6 SW 17 24 9 13 1013.4 - 0.0
18/10:30pm 19.2 12.7 0.6 28 8.3 SW 24 35 13 19 1013.1 - 0.0
18/10:00pm 20.0 12.8 1.0 28 8.6 SW 28 41 15 22 1012.8 - 0.0
18/09:30pm 20.4 14.3 2.7 31 8.3 WSW 24 35 13 19 1012.4 - 0.0
18/09:00pm 20.4 14.9 4.0 34 7.9 WSW 22 28 12 15 1012.0 1011.7 0.0
18/08:30pm 21.0 14.4 4.1 33 8.2 SW 28 39 15 21 1011.8 - 0.0
18/08:00pm 21.3 14.1 4.9 34 8.1 SW 32 46 17 25 1011.4 - 0.0
18/07:30pm 22.8 14.7 5.3 32 8.8 SW 37 50 20 27 1010.8 - 0.0
18/07:00pm 23.5 14.6 5.3 30 9.2 SW 41 54 22 29 1010.1 - 0.0
18/06:34pm 24.4 15.6 5.6 29 9.6 SW 41 59 22 32 1009.3 - 0.0
18/06:30pm 24.6 15.1 5.0 28 9.9 SW 44 61 24 33 1009.3 - 0.0
18/06:18pm 25.5 15.9 3.5 24 10.9 WSW 43 61 23 33 1008.9 - 0.0
18/06:00pm 25.4 16.3 4.0 25 10.7 SW 41 56 22 30 1008.6 1008.3 0.0
18/05:44pm 26.0 17.0 2.7 22 11.4 SW 39 65 21 35 1008.5 - 0.0
18/05:30pm 25.8 16.5 2.7 22 11.3 WSW 41 52 22 28 1008.3 - 0.0
18/05:10pm 27.3 18.1 1.0 18 12.6 WSW 39 57 21 31 1008.0 - 0.0
18/05:00pm 27.7 18.6 -0.9 15 13.3 WSW 37 59 20 32 1008.0 - 0.0
18/04:57pm 26.9 17.9 0.1 17 12.6 SW 37 59 20 32 1008.0 - 0.0
18/04:50pm 27.3 17.8 -1.1 15 13.1 W 39 57 21 31 1008.1 - 0.0
18/04:38pm 27.4 17.5 -1.2 15 13.2 W 41 57 22 31 1007.7 - 0.0
18/04:30pm 26.8 17.7 -0.5 16 12.7 SW 37 50 20 27 1008.0 - 0.0
18/04:00pm 26.0 16.6 -0.3 18 12.2 WSW 39 50 21 27 1008.0 - 0.0
18/03:34pm 25.2 16.2 0.3 19 11.6 WSW 37 56 20 30 1008.0 - 0.0
18/03:30pm 26.0 16.2 0.1 18 12.1 WSW 41 56 22 30 1007.9 - 0.0
18/03:23pm 26.3 16.8 1.5 20 11.9 WSW 41 56 22 30 1007.9 - 0.0
18/03:05pm 26.4 17.9 0.6 18 12.2 W 35 56 19 30 1007.5 - 0.0
18/03:00pm 26.2 17.7 0.9 19 12.0 W 35 52 19 28 1007.7 1007.5 0.0
18/02:46pm 27.0 18.5 1.2 18 12.4 W 35 54 19 29 1007.6 - 0.0

Other Formats:

Comma delimited format used in spreadsheet applications
http://www.bom.gov.au/fwo/IDN60801/IDN60801.94843.axf

JavaScript Object Notation format (JSON) in row-major order
http://www.bom.gov.au/fwo/IDN60801/IDN60801.94843.json